Time;durP1;ratioP1;P1;durP2;ratioP2;P2;SDS_P1;SDS_P2;PMS_P1;PMS_P2;Temp;Humidity;BMP_temperature;BMP_pressure;BME280_temperature;BME280_humidity;BME280_pressure;Samples;Min_cycle;Max_cycle;Signal;HPM_P1;HPM_P2
2022/12/06 00:01:55;;;;;;;18.57;8.15;;;;;;;-6.56;74.52;101199.27;1736172;81;21056;-75
2022/12/06 00:04:22;;;;;;;13.62;7.83;;;;;;;-6.57;74.33;101190.24;1699884;83;21081;-72
2022/12/06 00:06:52;;;;;;;14.73;8.15;;;;;;;-6.57;74.29;101188.53;1737682;81;21287;-74
2022/12/06 00:09:22;;;;;;;16.42;8.25;;;;;;;-6.59;74.36;101183.80;1734123;81;21263;-74
2022/12/06 00:11:48;;;;;;;16.25;7.60;;;;;;;-6.55;74.31;101192.36;1743357;81;21056;-74
2022/12/06 00:14:15;;;;;;;19.65;8.58;;;;;;;-6.52;74.11;101182.83;1736724;81;21000;-74
2022/12/06 00:16:42;;;;;;;14.38;7.50;;;;;;;-6.50;74.01;101187.14;1729663;81;21050;-74
2022/12/06 00:19:12;;;;;;;15.43;7.97;;;;;;;-6.48;73.78;101179.77;1755824;81;21032;-74
2022/12/06 00:21:39;;;;;;;10.98;7.20;;;;;;;-6.46;73.69;101183.63;1737571;81;21753;-75
2022/12/06 00:24:10;;;;;;;18.25;7.67;;;;;;;-6.50;73.64;101175.50;1728112;81;21052;-74
2022/12/06 00:26:40;;;;;;;15.50;8.60;;;;;;;-6.48;73.45;101178.47;1730007;81;21103;-75
2022/12/06 00:29:06;;;;;;;15.98;8.13;;;;;;;-6.52;73.35;101188.45;1749490;81;20994;-77
2022/12/06 00:31:34;;;;;;;11.60;7.08;;;;;;;-6.52;73.30;101176.36;1729281;82;21025;-77
2022/12/06 00:34:00;;;;;;;16.95;8.70;;;;;;;-6.56;73.22;101173.42;1739691;81;21097;-77
2022/12/06 00:36:31;;;;;;;15.55;8.53;;;;;;;-6.55;73.16;101166.51;1759247;81;21112;-79
2022/12/06 00:39:04;;;;;;;15.35;7.42;;;;;;;-6.57;73.24;101170.44;1715952;82;21006;-80
2022/12/06 00:41:31;;;;;;;15.28;7.72;;;;;;;-6.57;73.16;101167.85;1741563;81;20993;-80
2022/12/06 00:43:57;;;;;;;18.77;8.15;;;;;;;-6.56;73.19;101169.98;1751956;81;21106;-77
2022/12/06 00:46:28;;;;;;;16.30;7.58;;;;;;;-6.56;73.29;101173.87;1739988;81;21165;-79
2022/12/06 00:48:55;;;;;;;13.78;8.18;;;;;;;-6.57;73.14;101161.39;1730586;81;21080;-79
2022/12/06 00:51:22;;;;;;;17.92;8.93;;;;;;;-6.59;73.20;101156.66;1759052;81;21072;-76
2022/12/06 00:53:49;;;;;;;14.33;8.05;;;;;;;-6.59;73.19;101158.39;1739352;81;21030;-73
2022/12/06 00:56:16;;;;;;;15.98;7.72;;;;;;;-6.62;73.29;101161.89;1742229;81;21090;-73
2022/12/06 00:58:42;;;;;;;15.53;7.65;;;;;;;-6.62;73.33;101164.47;1743923;81;21143;-74
2022/12/06 01:01:20;;;;;;;16.45;9.33;;;;;;;-6.61;73.32;101164.88;1731444;81;21096;-74
2022/12/06 01:03:50;;;;;;;15.98;7.92;;;;;;;-6.61;73.38;101156.27;1725292;81;21032;-74
2022/12/06 01:06:17;;;;;;;17.40;8.70;;;;;;;-6.60;73.37;101158.84;1751533;81;21544;-76
2022/12/06 01:08:44;;;;;;;15.48;8.80;;;;;;;-6.61;73.57;101154.98;1741017;81;21070;-74
2022/12/06 01:11:13;;;;;;;16.32;9.13;;;;;;;-6.59;73.61;101157.95;1743125;81;21103;-73
2022/12/06 01:13:39;;;;;;;23.70;11.10;;;;;;;-6.65;73.82;101149.00;1691271;81;21064;-72
2022/12/06 01:16:08;;;;;;;18.55;9.80;;;;;;;-6.62;74.05;101157.17;1732093;81;21111;-74
2022/12/06 01:18:35;;;;;;;17.87;9.63;;;;;;;-6.64;74.13;101161.06;1688551;83;21045;-73
2022/12/06 01:21:04;;;;;;;18.87;9.45;;;;;;;-6.63;74.25;101147.69;1741365;81;21023;-73
2022/12/06 01:23:31;;;;;;;17.65;9.60;;;;;;;-6.66;74.35;101143.84;1720332;83;21137;-72
2022/12/06 01:25:58;;;;;;;15.55;9.45;;;;;;;-6.67;74.47;101140.86;1726859;81;21051;-73
2022/12/06 01:28:24;;;;;;;18.05;9.35;;;;;;;-6.68;74.65;101137.85;1737384;81;21098;-74
2022/12/06 01:30:51;;;;;;;16.37;9.23;;;;;;;-6.69;74.72;101139.59;1737651;81;21040;-73
2022/12/06 01:33:17;;;;;;;21.45;10.20;;;;;;;-6.73;74.72;101133.61;1738284;81;21028;-73
2022/12/06 01:35:44;;;;;;;18.25;10.38;;;;;;;-6.74;74.67;101132.34;1737741;82;21130;-74
2022/12/06 01:38:11;;;;;;;17.85;9.53;;;;;;;-6.75;74.63;101128.06;1740932;81;21032;-74
2022/12/06 01:40:46;;;;;;;20.88;10.32;;;;;;;-6.79;74.71;101132.42;1723721;81;21124;-74
2022/12/06 01:43:39;;;;;;;18.23;9.08;;;;;;;-6.81;74.72;101118.67;1736431;82;21056;-75
2022/12/06 01:46:34;;;;;;;26.20;11.12;;;;;;;-6.80;74.65;101118.23;1739783;81;21487;-77
2022/12/06 01:49:15;;;;;;;21.20;11.08;;;;;;;-6.85;74.37;101111.84;1740902;81;21144;-75
2022/12/06 01:51:48;;;;;;;17.40;9.50;;;;;;;-6.93;74.51;101105.52;1733165;81;21056;-74
2022/12/06 01:54:15;;;;;;;20.08;10.18;;;;;;;-6.96;74.46;101105.99;1745925;81;21038;-76
2022/12/06 01:56:42;;;;;;;23.65;10.28;;;;;;;-7.00;74.51;101100.46;1752756;81;21086;-75
2022/12/06 01:59:09;;;;;;;23.38;10.05;;;;;;;-7.02;74.50;101101.77;1758353;80;21051;-77
2022/12/06 02:01:36;;;;;;;23.32;9.38;;;;;;;-7.03;74.59;101098.78;1732668;82;21125;-76
2022/12/06 02:04:02;;;;;;;17.23;9.55;;;;;;;-7.01;74.46;101100.03;1729209;82;21016;-76
2022/12/06 02:06:29;;;;;;;20.17;8.98;;;;;;;-7.05;74.50;101096.66;1736223;82;21504;-75
2022/12/06 02:08:59;;;;;;;19.62;10.82;;;;;;;-7.06;74.47;101090.23;1743093;81;21047;-77
2022/12/06 02:11:25;;;;;;;19.17;9.85;;;;;;;-7.05;74.38;101092.80;1720636;82;21064;-78
2022/12/06 02:13:52;;;;;;;18.27;9.68;;;;;;;-7.04;74.28;101093.19;1735316;81;21127;-77
2022/12/06 02:17:09;;;;;;;17.95;9.35;;;;;;;-7.05;74.24;101096.66;1732684;82;21033;-75
2022/12/06 02:19:58;;;;;;;17.48;8.90;;;;;;;-7.07;74.03;101099.68;1744753;81;21574;-78
2022/12/06 02:22:42;;;;;;;20.25;10.25;;;;;;;-7.09;73.92;101082.52;1723109;81;21004;-78
2022/12/06 02:25:47;;;;;;;17.85;9.15;;;;;;;-7.20;73.97;101091.73;1741067;81;21024;-77
2022/12/06 02:28:38;;;;;;;20.20;9.23;;;;;;;-7.24;74.16;101082.29;1726145;81;21180;-74
2022/12/06 02:31:31;;;;;;;17.07;8.58;;;;;;;-7.25;74.19;101084.03;1726909;82;21017;-79
2022/12/06 02:34:21;;;;;;;19.17;8.88;;;;;;;-7.32;74.28;101072.95;1724854;82;21059;-77
2022/12/06 02:37:08;;;;;;;17.77;8.48;;;;;;;-7.31;74.42;101080.25;1732203;81;21104;-77
2022/12/06 02:39:58;;;;;;;20.40;8.38;;;;;;;-7.33;74.47;101073.81;1717766;82;21041;-78
2022/12/06 02:42:29;;;;;;;15.45;7.70;;;;;;;-7.33;74.57;101074.25;1749541;81;21122;-78
2022/12/06 02:45:06;;;;;;;15.20;8.95;;;;;;;-7.38;74.72;101064.01;1757352;81;21005;-77
2022/12/06 02:47:34;;;;;;;15.38;8.83;;;;;;;-7.39;74.91;101075.20;1724257;81;21094;-78
2022/12/06 02:50:04;;;;;;;14.98;7.90;;;;;;;-7.39;74.99;101079.52;1745224;81;21068;-77
2022/12/06 02:52:31;;;;;;;17.92;8.43;;;;;;;-7.39;75.09;101077.77;1738834;81;21135;-76
2022/12/06 02:54:57;;;;;;;16.45;8.68;;;;;;;-7.39;75.16;101075.20;1736348;81;21216;-76
2022/12/06 02:57:41;;;;;;;15.93;8.50;;;;;;;-7.33;75.22;101077.68;1736419;81;21028;-77
2022/12/06 03:00:36;;;;;;;19.05;9.18;;;;;;;-7.30;75.04;101074.22;1732856;81;23080;-74
2022/12/06 03:03:33;;;;;;;15.23;8.48;;;;;;;-7.29;75.04;101079.78;1729537;82;21044;-76
2022/12/06 03:06:17;;;;;;;16.27;7.70;;;;;;;-7.27;75.02;101074.61;1725736;81;21568;-77
2022/12/06 03:09:21;;;;;;;18.57;8.88;;;;;;;-7.24;74.92;101075.84;1732332;81;21170;-76
2022/12/06 03:11:54;;;;;;;;;;;;;;;-7.25;74.79;101078.02;1736159;81;20990;-75
2022/12/06 03:14:25;;;;;;;12.37;7.25;;;;;;;-7.27;74.85;101079.77;1734234;82;20198;-75
2022/12/06 03:17:22;;;;;;;19.85;9.05;;;;;;;-7.27;74.93;101082.36;1735278;81;21526;-77
2022/12/06 03:19:54;;;;;;;21.07;9.15;;;;;;;-7.27;74.82;101087.52;1741655;81;21489;-76
2022/12/06 03:22:30;;;;;;;19.02;8.83;;;;;;;-7.24;74.88;101082.29;1731520;82;21201;-74
2022/12/06 03:24:57;;;;;;;17.82;9.38;;;;;;;-7.19;74.76;101083.09;1740140;81;21470;-74
2022/12/06 03:27:24;;;;;;;16.25;8.60;;;;;;;-7.17;74.55;101083.91;1727547;81;21076;-75
2022/12/06 03:29:55;;;;;;;17.67;7.65;;;;;;;-7.19;74.50;101088.25;1729487;81;21083;-74
2022/12/06 03:32:24;;;;;;;18.92;8.68;;;;;;;-7.15;74.54;101075.70;1733630;81;21603;-72
2022/12/06 03:34:52;;;;;;;14.05;7.90;;;;;;;-7.18;74.50;101077.06;1731736;81;21576;-73
2022/12/06 03:37:21;;;;;;;17.30;8.48;;;;;;;-7.21;74.61;101079.23;1704791;81;21020;-75
2022/12/06 03:40:22;;;;;;;14.10;8.28;;;;;;;-7.21;74.67;101075.80;1738454;81;21023;-74
2022/12/06 03:42:49;;;;;;;19.57;8.98;;;;;;;-7.20;74.71;101078.81;1736060;82;20991;-75
2022/12/06 03:45:17;;;;;;;16.12;8.30;;;;;;;-7.19;74.78;101075.34;1734130;81;21035;-75
2022/12/06 03:47:56;;;;;;;17.62;9.23;;;;;;;-7.12;74.61;101074.37;1734544;81;21145;-75
2022/12/06 03:50:37;;;;;;;17.37;9.10;;;;;;;-7.11;74.49;101074.78;1724244;81;21110;-75
2022/12/06 03:54:23;;;;;;;13.70;7.87;;;;;;;-7.02;74.42;101068.19;1869604;76;22102;-74
2022/12/06 03:56:49;;;;;;;18.70;8.58;;;;;;;-7.00;74.13;101066.88;1766810;80;21465;-75
2022/12/06 03:59:16;;;;;;;15.95;8.25;;;;;;;-7.01;73.83;101071.20;1759065;80;21247;-75
2022/12/06 04:01:42;;;;;;;15.88;9.05;;;;;;;-7.04;73.84;101069.94;1760511;80;20967;-75
2022/12/06 04:04:09;;;;;;;17.77;8.45;;;;;;;-7.01;73.83;101063.86;1761248;80;21563;-75
2022/12/06 04:06:36;;;;;;;17.90;9.03;;;;;;;-7.01;73.59;101061.28;1798496;79;21553;-74
2022/12/06 04:11:47;;;;;;;20.85;8.75;;;;;;;-7.07;73.36;101059.64;1791114;79;22170;-74
2022/12/06 04:14:14;;;;;;;19.50;9.08;;;;;;;-7.09;73.48;101055.39;1771320;79;20938;-74
2022/12/06 04:19:25;;;;;;;18.50;10.10;;;;;;;-7.07;73.32;101050.60;1749442;80;21101;-74
2022/12/06 04:24:37;;;;;;;21.23;9.65;;;;;;;-7.08;73.17;101046.33;1770511;79;21233;-74
2022/12/06 04:40:49;;;;;;;23.02;11.65;;;;;;;-7.19;72.76;101037.44;1778940;80;21079;-78
2022/12/06 04:46:00;;;;;;;18.82;11.28;;;;;;;-7.27;72.70;101039.75;1759225;81;21052;-76
2022/12/06 04:48:27;;;;;;;21.62;11.25;;;;;;;-7.35;72.82;101029.09;1759780;80;21103;-77
2022/12/06 04:50:53;;;;;;;22.17;10.82;;;;;;;-7.36;72.93;101032.56;1762120;79;21142;-75
2022/12/06 04:53:20;;;;;;;20.32;9.80;;;;;;;-7.37;73.00;101032.58;1781147;80;21089;-78
2022/12/06 04:55:47;;;;;;;20.10;9.07;;;;;;;-7.44;73.13;101029.22;1759626;80;21009;-77
2022/12/06 04:58:13;;;;;;;18.65;9.28;;;;;;;-7.46;73.13;101033.55;1813646;78;21040;-77
2022/12/06 05:00:43;;;;;;;16.97;8.95;;;;;;;-7.56;73.29;101028.95;1811642;77;21468;-77
2022/12/06 05:03:10;;;;;;;17.07;9.25;;;;;;;-7.57;73.38;101031.55;1800883;78;21730;-76
2022/12/06 05:05:37;;;;;;;20.10;8.18;;;;;;;-7.59;73.51;101038.47;1797668;77;21045;-76
2022/12/06 05:08:04;;;;;;;13.88;7.28;;;;;;;-7.60;73.67;101026.45;1831466;76;21552;-76
2022/12/06 05:10:32;;;;;;;16.97;8.48;;;;;;;-7.56;73.62;101028.95;1809098;77;20999;-73
2022/12/06 05:13:00;;;;;;;23.15;9.03;;;;;;;-7.58;73.66;101024.26;1754520;80;21083;-75
2022/12/06 05:15:27;;;;;;;16.32;9.10;;;;;;;-7.59;73.66;101027.73;1797749;78;21209;-74
2022/12/06 05:17:54;;;;;;;18.77;8.35;;;;;;;-7.60;73.78;101024.72;1784107;80;21029;-74
2022/12/06 05:20:20;;;;;;;18.35;8.95;;;;;;;-7.56;73.80;101021.66;1784527;80;21012;-73
2022/12/06 05:22:47;;;;;;;15.35;8.00;;;;;;;-7.58;73.87;101019.09;1775482;80;21036;-73
2022/12/06 05:25:13;;;;;;;14.45;8.28;;;;;;;-7.55;74.03;101013.91;1814115;77;21107;-71
2022/12/06 05:27:40;;;;;;;16.52;7.50;;;;;;;-7.51;73.89;101014.27;1815812;77;21812;-75
2022/12/06 05:30:08;;;;;;;21.57;9.33;;;;;;;-7.51;73.83;101014.27;1846980;77;20975;-75
2022/12/06 05:32:37;;;;;;;15.68;8.45;;;;;;;-7.47;73.77;101017.66;1810680;77;21070;-74
2022/12/06 05:35:06;;;;;;;16.87;7.95;;;;;;;-7.48;73.90;101012.06;1803025;78;21025;-75
2022/12/06 05:37:32;;;;;;;16.55;8.00;;;;;;;-7.41;73.96;101016.72;1823193;78;20998;-74
2022/12/06 05:39:58;;;;;;;17.23;8.33;;;;;;;-7.35;73.90;101017.47;1814324;77;21579;-72
2022/12/06 05:42:25;;;;;;;12.78;8.20;;;;;;;-7.33;73.84;101011.84;1801472;77;21580;-75
2022/12/06 05:44:52;;;;;;;20.90;8.20;;;;;;;-7.24;73.81;101012.56;1793266;78;21046;-73
2022/12/06 05:47:18;;;;;;;14.73;8.63;;;;;;;-7.21;73.64;101006.91;1757680;80;21052;-74
2022/12/06 05:49:45;;;;;;;16.73;7.83;;;;;;;-7.18;73.58;101007.33;1774190;78;21067;-73
2022/12/06 05:52:11;;;;;;;16.77;7.37;;;;;;;-7.14;73.46;101007.69;1754645;78;21152;-73
2022/12/06 05:54:38;;;;;;;18.37;7.80;;;;;;;-7.09;73.59;101000.70;1793180;78;21087;-74
2022/12/06 05:57:04;;;;;;;15.15;7.40;;;;;;;-7.02;73.45;101003.60;1799270;78;21002;-74
2022/12/06 05:59:31;;;;;;;12.30;7.05;;;;;;;-6.99;73.47;101004.85;1797897;77;21239;-75
2022/12/06 06:01:57;;;;;;;16.77;8.03;;;;;;;-6.97;73.47;100999.67;1814286;77;21013;-73
2022/12/06 06:04:23;;;;;;;15.10;7.87;;;;;;;-6.96;73.59;100995.74;1823959;78;21220;-75
2022/12/06 06:06:50;;;;;;;13.68;6.33;;;;;;;-6.89;73.55;100991.78;1817068;77;21087;-74
2022/12/06 06:09:17;;;;;;;12.28;7.40;;;;;;;-6.84;73.49;100997.25;1793646;79;21485;-74
2022/12/06 06:11:43;;;;;;;14.07;7.75;;;;;;;-6.81;73.55;100995.92;1793935;78;21501;-75
2022/12/06 06:14:10;;;;;;;13.13;6.62;;;;;;;-6.79;73.59;100995.91;1771005;78;21418;-76
2022/12/06 06:16:37;;;;;;;18.23;8.13;;;;;;;-6.75;73.65;100991.09;1769796;79;21529;-74
2022/12/06 06:19:03;;;;;;;12.45;7.35;;;;;;;-6.68;73.58;100983.64;1766759;80;21004;-75
2022/12/06 06:21:30;;;;;;;18.05;8.95;;;;;;;-6.65;73.45;100990.48;1757370;80;21512;-75
2022/12/06 06:23:56;;;;;;;17.62;8.18;;;;;;;-6.65;73.46;100979.69;1756000;81;21020;-73
2022/12/06 06:26:23;;;;;;;17.30;7.62;;;;;;;-6.63;73.52;100983.09;1756961;80;21032;-73
2022/12/06 06:28:49;;;;;;;15.78;8.05;;;;;;;-6.59;73.71;100983.45;1756046;81;21235;-74
2022/12/06 06:31:16;;;;;;;14.35;7.42;;;;;;;-6.50;73.75;100988.05;1743055;79;21038;-70
2022/12/06 06:33:42;;;;;;;14.13;7.67;;;;;;;-6.42;73.79;100982.28;1758344;80;21043;-69
2022/12/06 06:36:09;;;;;;;16.35;8.70;;;;;;;-6.34;73.73;100981.23;1777690;80;21000;-70
2022/12/06 06:38:36;;;;;;;16.32;8.48;;;;;;;-6.30;73.45;100983.33;1769998;81;21002;-70
2022/12/06 06:41:04;;;;;;;17.35;8.85;;;;;;;-6.29;73.47;100977.73;1784555;80;21273;-69
2022/12/06 06:43:30;;;;;;;17.45;9.48;;;;;;;-6.28;73.30;100975.09;1740379;81;21275;-70
2022/12/06 06:45:59;;;;;;;15.85;7.95;;;;;;;-6.28;73.46;100963.91;1755704;80;21036;-70
2022/12/06 06:48:28;;;;;;;14.03;8.60;;;;;;;-6.27;73.57;100965.63;1763142;80;21028;-70
2022/12/06 06:50:55;;;;;;;18.57;9.98;;;;;;;-6.21;73.65;100966.78;1763568;81;21081;-71
2022/12/06 06:53:23;;;;;;;20.37;10.13;;;;;;;-6.17;73.74;100957.62;1781004;78;21183;-70
2022/12/06 06:55:50;;;;;;;15.98;8.73;;;;;;;-6.15;73.85;100977.84;1764530;80;21069;-71
2022/12/06 06:58:16;;;;;;;14.35;8.48;;;;;;;-6.09;73.88;100963.92;1764560;81;21315;-69
2022/12/06 07:00:44;;;;;;;20.32;9.23;;;;;;;-6.13;74.01;100957.12;1762798;81;21026;-70
2022/12/06 07:03:14;;;;;;;17.95;8.65;;;;;;;-6.07;74.12;100966.48;1755466;80;21543;-71
2022/12/06 07:05:46;;;;;;;16.90;8.65;;;;;;;-6.05;74.27;100965.56;1728356;83;21604;-71
2022/12/06 07:08:10;;;;;;;18.80;8.98;;;;;;;-6.03;74.42;100965.53;1744588;81;21021;-71
2022/12/06 07:10:39;;;;;;;15.20;8.83;;;;;;;-6.00;74.50;100954.68;1755241;81;21085;-70
2022/12/06 07:13:12;;;;;;;17.57;8.65;;;;;;;-5.95;74.59;100956.70;1754353;80;21021;-70
2022/12/06 07:15:47;;;;;;;20.72;9.60;;;;;;;-5.88;74.59;100956.56;1715917;81;21007;-71
2022/12/06 07:18:15;;;;;;;18.85;9.83;;;;;;;-5.88;74.69;100966.47;1775025;80;21297;-71
2022/12/06 07:20:43;;;;;;;17.90;10.08;;;;;;;-5.83;74.83;100966.35;1770754;79;20994;-73
2022/12/06 07:23:10;;;;;;;18.00;9.35;;;;;;;-5.84;74.95;100962.92;1781543;79;21027;-71
2022/12/06 07:25:36;;;;;;;15.83;9.38;;;;;;;-5.88;75.17;100954.82;1792355;79;20991;-71
2022/12/06 07:28:03;;;;;;;17.82;9.15;;;;;;;-5.87;75.40;100965.59;1735416;79;21081;-71
2022/12/06 07:30:32;;;;;;;19.55;9.43;;;;;;;-5.84;75.59;100949.98;1738115;80;22147;-71
2022/12/06 07:32:58;;;;;;;14.30;8.95;;;;;;;-5.83;75.74;100949.11;1720021;81;21030;-71
2022/12/06 07:35:25;;;;;;;22.35;10.48;;;;;;;-5.75;75.75;100960.59;1737417;80;21025;-71
2022/12/06 07:37:52;;;;;;;17.62;8.85;;;;;;;-5.67;75.76;100955.23;1730177;81;21027;-71
2022/12/06 07:40:18;;;;;;;16.73;8.68;;;;;;;-5.61;75.75;100956.38;1804409;79;21021;-71
2022/12/06 07:45:30;;;;;;;15.55;8.18;;;;;;;-5.45;75.60;100951.69;1782411;79;21021;-71
2022/12/06 07:47:57;;;;;;;15.70;8.38;;;;;;;-5.40;75.45;100960.20;1822772;77;21065;-70
2022/12/06 07:50:23;;;;;;;13.78;7.40;;;;;;;-5.35;75.40;100949.27;1823781;76;21021;-71
2022/12/06 07:52:50;;;;;;;14.30;8.18;;;;;;;-5.29;75.08;100947.85;1814432;77;21058;-70
2022/12/06 07:55:17;;;;;;;14.25;8.28;;;;;;;-5.32;75.05;100941.89;1829239;77;21187;-71
2022/12/06 07:57:43;;;;;;;12.28;8.03;;;;;;;-5.28;75.33;100943.52;1791814;77;21061;-71
2022/12/06 08:00:13;;;;;;;18.70;9.83;;;;;;;-5.13;75.35;100941.83;1805294;79;21442;-71
2022/12/06 08:02:39;;;;;;;16.35;9.13;;;;;;;-5.06;75.06;100936.03;1795582;77;21002;-71
2022/12/06 08:05:07;;;;;;;14.70;8.13;;;;;;;-4.97;75.11;100936.64;1804411;77;21046;-74
2022/12/06 08:07:34;;;;;;;14.95;8.55;;;;;;;-4.88;74.86;100933.43;1822552;77;21071;-73
2022/12/06 08:10:01;;;;;;;16.05;8.28;;;;;;;-4.82;74.57;100930.67;1837892;77;22017;-75
2022/12/06 08:12:30;;;;;;;15.43;7.90;;;;;;;-4.77;74.34;100918.41;1812489;79;21014;-73
2022/12/06 08:14:57;;;;;;;14.90;8.63;;;;;;;-4.76;74.25;100925.31;1825916;77;21041;-73
2022/12/06 08:17:24;;;;;;;15.78;8.20;;;;;;;-4.72;74.21;100923.03;1813294;76;20989;-75
2022/12/06 08:19:51;;;;;;;15.55;7.47;;;;;;;-4.68;74.12;100914.73;1814235;79;21101;-71
2022/12/06 08:22:17;;;;;;;13.28;7.85;;;;;;;-4.67;74.18;100914.70;1814249;78;21035;-75
2022/12/06 08:24:44;;;;;;;12.37;7.33;;;;;;;-4.57;74.05;100911.39;1814489;78;21462;-75
2022/12/06 08:27:10;;;;;;;18.32;9.23;;;;;;;-4.60;74.07;100912.34;1814375;78;21061;-74
2022/12/06 08:29:37;;;;;;;13.18;7.47;;;;;;;-4.53;74.03;100910.86;1798813;77;21028;-72
2022/12/06 08:32:04;;;;;;;13.25;7.75;;;;;;;-4.51;74.10;100908.63;1789817;76;21082;-73
2022/12/06 08:34:31;;;;;;;16.77;8.38;;;;;;;-4.48;74.13;100902.06;1806458;79;21077;-71
2022/12/06 08:36:57;;;;;;;13.38;7.28;;;;;;;-4.45;74.04;100900.66;1810918;77;21057;-71
2022/12/06 08:39:25;;;;;;;14.93;8.55;;;;;;;-4.43;74.08;100898.87;1823309;77;21042;-71
2022/12/06 08:41:54;;;;;;;15.53;7.12;;;;;;;-4.36;74.03;100899.55;1816798;77;21034;-76
2022/12/06 08:44:21;;;;;;;13.15;8.00;;;;;;;-4.39;74.11;100896.59;1818939;77;21227;-71
2022/12/06 08:46:48;;;;;;;12.63;7.28;;;;;;;-4.34;74.12;100893.88;1818384;77;21540;-74
2022/12/06 08:49:16;;;;;;;12.68;6.87;;;;;;;-4.31;74.27;100895.52;1795714;77;21001;-73
2022/12/06 08:51:43;;;;;;;13.88;8.23;;;;;;;-4.29;74.23;100888.54;1800303;77;20978;-73
2022/12/06 08:54:13;;;;;;;13.18;7.78;;;;;;;-4.27;74.32;100881.55;1815040;76;21014;-73
2022/12/06 08:56:40;;;;;;;16.12;7.62;;;;;;;-4.23;74.45;100892.24;1823421;77;21013;-73
2022/12/06 08:59:06;;;;;;;9.75;6.08;;;;;;;-4.21;74.51;100882.24;1836661;77;20975;-79
2022/12/06 09:01:33;;;;;;;11.43;5.70;;;;;;;-4.17;74.62;100875.22;1801832;77;21096;-75
2022/12/06 09:04:00;;;;;;;10.32;6.03;;;;;;;-4.14;74.65;100877.70;1823129;77;21039;-73
2022/12/06 09:06:27;;;;;;;12.88;6.28;;;;;;;-4.06;74.62;100877.47;1816493;77;21001;-72
2022/12/06 09:08:55;;;;;;;13.30;6.30;;;;;;;-4.02;74.44;100866.09;1804447;78;21243;-74
2022/12/06 09:11:21;;;;;;;10.15;6.60;;;;;;;-4.02;74.38;100868.69;1820522;77;21036;-72
2022/12/06 09:13:48;;;;;;;12.75;6.92;;;;;;;-3.91;74.43;100861.41;1826518;77;21029;-71
2022/12/06 09:16:19;;;;;;;8.63;5.65;;;;;;;-3.80;74.26;100857.19;1818518;77;21099;-72
2022/12/06 09:18:46;;;;;;;7.30;5.25;;;;;;;-3.72;73.83;100847.85;1825626;77;21025;-77
2022/12/06 09:21:16;;;;;;;11.10;5.95;;;;;;;-3.66;73.18;100852.38;1822413;78;21130;-75
2022/12/06 09:23:42;;;;;;;9.75;5.62;;;;;;;-3.69;73.17;100849.91;1838109;77;21512;-75
2022/12/06 09:26:09;;;;;;;8.40;5.40;;;;;;;-3.70;73.05;100851.25;1815724;77;21022;-71
2022/12/06 09:28:37;;;;;;;8.88;5.37;;;;;;;-3.66;72.99;100845.89;1854166;77;21064;-71
2022/12/06 09:31:05;;;;;;;8.20;5.58;;;;;;;-3.70;72.93;100847.35;1814937;77;21063;-75
2022/12/06 09:33:33;;;;;;;11.10;6.30;;;;;;;-3.70;72.85;100839.56;1781809;79;20978;-69
2022/12/06 09:36:04;;;;;;;9.50;6.08;;;;;;;-3.66;72.96;100832.91;1778075;80;21033;-70
2022/12/06 09:38:30;;;;;;;9.73;5.45;;;;;;;-3.55;72.71;100832.56;1778088;79;21490;-74
2022/12/06 09:41:23;;;;;;;9.15;5.30;;;;;;;-3.52;71.98;100854.98;1797102;79;21535;-73
2022/12/06 09:44:10;;;;;;;9.65;4.90;;;;;;;-3.59;71.85;100834.86;1783754;80;21555;-74
2022/12/06 09:47:21;;;;;;;8.38;4.00;;;;;;;-3.69;71.89;100841.24;1784256;80;22136;-75
2022/12/06 09:50:13;;;;;;;8.53;5.17;;;;;;;-3.73;71.98;100826.66;1695914;82;21587;-77
2022/12/06 09:53:00;;;;;;;11.15;5.67;;;;;;;-3.75;72.16;100837.09;1748844;81;21009;-75
2022/12/06 09:55:44;;;;;;;10.25;6.22;;;;;;;-3.72;72.10;100834.87;1785394;80;21008;-77
2022/12/06 09:58:22;;;;;;;10.48;5.53;;;;;;;-3.71;72.23;100810.58;1790242;79;21537;-76
2022/12/06 10:01:16;;;;;;;12.78;6.75;;;;;;;-3.58;72.35;100814.47;1777419;79;21782;-76
2022/12/06 10:04:06;;;;;;;11.47;6.93;;;;;;;-3.49;71.57;100806.83;1772518;80;21021;-79
2022/12/06 10:06:53;;;;;;;10.48;5.92;;;;;;;-3.49;71.47;100805.06;1757836;80;21555;-77
2022/12/06 10:09:40;;;;;;;16.90;6.97;;;;;;;-3.51;70.85;100809.92;1775980;78;21321;-74
2022/12/06 10:12:39;;;;;;;12.53;7.10;;;;;;;-3.59;70.86;100814.08;1779737;80;21489;-72
2022/12/06 10:15:31;;;;;;;10.82;6.80;;;;;;;-3.67;71.04;100804.38;1769300;80;21099;-73
2022/12/06 10:18:27;;;;;;;12.00;6.12;;;;;;;-3.69;71.14;100789.30;1783990;79;21574;-73
2022/12/06 10:21:23;;;;;;;14.45;7.03;;;;;;;-3.68;71.24;100797.50;1665327;84;21108;-73
2022/12/06 10:24:25;;;;;;;16.15;6.90;;;;;;;-3.63;71.03;100787.78;1665739;84;21041;-72
2022/12/06 10:26:54;;;;;;;12.05;6.75;;;;;;;-3.63;71.02;100791.68;1658595;86;21045;-73
2022/12/06 10:29:38;;;;;;;12.60;7.00;;;;;;;-3.61;70.97;100789.91;1665128;84;21315;-74
2022/12/06 10:32:17;;;;;;;10.48;6.80;;;;;;;-3.59;70.79;100784.21;1666007;86;28135;-72
2022/12/06 10:35:17;;;;;;;11.73;6.62;;;;;;;-3.58;70.64;100784.59;1664697;86;21068;-71
2022/12/06 10:38:34;;;;;;;8.45;5.78;;;;;;;-3.58;70.71;100784.59;1644778;86;21061;-71
2022/12/06 10:41:18;;;;;;;9.33;5.90;;;;;;;-3.54;70.68;100781.45;1665034;86;21129;-72
2022/12/06 10:44:09;;;;;;;11.70;6.12;;;;;;;-3.50;70.33;100787.77;1666094;86;21573;-71
2022/12/06 10:47:02;;;;;;;14.18;6.50;;;;;;;-3.48;70.28;100777.33;1667680;84;21056;-71
2022/12/06 10:49:55;;;;;;;12.63;7.35;;;;;;;-3.43;70.46;100772.83;1617624;87;21062;-71
2022/12/06 10:52:39;;;;;;;10.30;5.92;;;;;;;-3.36;70.23;100766.53;1664956;84;21014;-75
2022/12/06 10:55:17;;;;;;;11.30;5.62;;;;;;;-3.32;70.07;100768.53;1666493;84;21080;-76
2022/12/06 10:58:20;;;;;;;10.45;5.80;;;;;;;-3.26;69.80;100767.05;1667616;84;22085;-75
2022/12/06 11:01:13;;;;;;;11.35;6.40;;;;;;;-3.23;69.82;100765.16;1666078;85;22067;-75
2022/12/06 11:03:43;;;;;;;9.43;5.67;;;;;;;-3.10;69.49;100758.23;1701042;83;21511;-78
2022/12/06 11:06:33;;;;;;;10.70;6.28;;;;;;;-3.06;69.40;100751.55;1676931;84;21041;-75
2022/12/06 11:09:08;;;;;;;9.70;5.30;;;;;;;-2.89;69.18;100760.50;1682402;84;21073;-74
2022/12/06 11:11:35;;;;;;;10.55;4.78;;;;;;;-2.74;68.39;100758.62;1672132;84;21187;-73
2022/12/06 11:14:37;;;;;;;8.48;4.87;;;;;;;-2.67;67.97;100754.85;1702751;84;21021;-78
2022/12/06 11:17:19;;;;;;;8.98;5.22;;;;;;;-2.61;67.48;100746.84;1647613;84;21367;-72
2022/12/06 11:19:56;;;;;;;9.40;5.40;;;;;;;-2.70;66.84;100760.20;1690554;82;21560;-72
2022/12/06 11:22:39;;;;;;;9.25;5.10;;;;;;;-2.80;67.28;100744.52;1695337;83;21112;-72
2022/12/06 11:25:24;;;;;;;10.00;5.15;;;;;;;-2.90;67.31;100746.63;1695105;82;21237;-73
2022/12/06 11:28:08;;;;;;;9.80;6.15;;;;;;;-2.88;67.58;100725.77;1683841;84;21526;-72
2022/12/06 11:30:35;;;;;;;10.23;5.97;;;;;;;-2.88;67.43;100719.27;1682290;84;21029;-73
2022/12/06 11:33:01;;;;;;;10.75;5.60;;;;;;;-2.94;67.40;100711.70;1693837;84;21038;-71
2022/12/06 11:35:29;;;;;;;10.45;5.83;;;;;;;-2.96;67.55;100705.26;1703965;82;21071;-71
2022/12/06 11:37:59;;;;;;;8.23;5.35;;;;;;;-2.99;67.86;100708.83;1633795;86;21209;-72
2022/12/06 11:40:32;;;;;;;9.60;5.60;;;;;;;-2.99;67.43;100706.23;1653614;85;21122;-73
2022/12/06 11:43:00;;;;;;;10.58;5.97;;;;;;;-3.03;67.63;100701.22;1635095;86;21095;-71
2022/12/06 11:45:32;;;;;;;10.23;6.47;;;;;;;-3.05;67.65;100702.56;1645320;86;21017;-71
2022/12/06 11:48:01;;;;;;;11.60;6.03;;;;;;;-3.05;67.87;100700.40;1672120;85;21066;-73
2022/12/06 11:50:29;;;;;;;9.48;5.30;;;;;;;-3.00;68.00;100696.72;1694218;83;21105;-74
2022/12/06 11:53:02;;;;;;;7.78;6.03;;;;;;;-2.93;67.95;100696.05;1660418;85;21817;-73
2022/12/06 11:55:34;;;;;;;10.55;5.67;;;;;;;-2.84;67.71;100698.73;1659529;85;21105;-74
2022/12/06 11:58:17;;;;;;;7.20;5.05;;;;;;;-2.88;67.34;100695.86;1643188;85;21030;-75
2022/12/06 12:01:01;;;;;;;10.05;6.83;;;;;;;-3.04;67.15;100691.25;1635746;86;21588;-74
2022/12/06 12:03:32;;;;;;;11.33;5.72;;;;;;;-3.25;67.56;100695.95;1649321;85;22088;-73
2022/12/06 12:06:25;;;;;;;9.90;5.53;;;;;;;-3.43;67.91;100689.23;1656103;85;21054;-73
2022/12/06 12:08:59;;;;;;;11.03;5.45;;;;;;;-3.59;68.37;100681.16;1653157;85;21071;-73
2022/12/06 12:11:34;;;;;;;10.48;5.90;;;;;;;-3.72;68.82;100684.25;1648111;86;21113;-74